Flight Track Log - Related Links

Times and Time Zones

All times are in EDT time to prevent confusion due to time zone crossing. See the N935SS flight status page for this flight to view local times or setup timezone preferences in your user account.


Time Position Orientation Groundspeed Altitude Reporting Facility
EDT Latitude Longitude Course Direction KTS MPH feet Rate Location/Type
Tue 07:31:19 AM 42.4667 -71.3167 324° Northwest 188 216 1,100  Level KA90
Tue 07:32:32 AM 42.5333 -71.3833 324° Northwest 266 306 4,200 2,693 Climbing KA90
Tue 07:34:15 AM 42.6431 -71.3364 17° North 299 344 9,000 2,488 Climbing Boston Center
Tue 07:35:16 AM 42.7303 -71.3011 17° North 293 337 11,000 1,636 Climbing Boston Center
Tue 07:36:16 AM 42.7872 -71.3650 321° Northwest 269 310 12,300 1,664 Climbing Boston Center
Tue 07:37:15 AM 42.8028 -71.4950 279° West 273 314 14,300 1,950 Climbing Boston Center
Tue 07:38:16 AM 42.8122 -71.6053 277° West 310 357 16,200 1,835 Climbing Boston Center
Tue 07:39:16 AM 42.8256 -71.7381 278° West 319 367 18,000 1,600 Climbing Boston Center
Tue 07:40:16 AM 42.8364 -71.8428 278° West 324 373 19,400 1,400 Climbing Boston Center
Tue 07:41:16 AM 42.8475 -71.9700 277° West 319 367 20,800 1,537 Climbing Boston Center
Tue 07:42:17 AM 42.8583 -72.0719 278° West 313 360 22,500 1,513 Climbing Boston Center
Tue 07:43:15 AM 42.8733 -72.1908 280° West 313 360 23,800 1,210 Climbing Boston Center
Tue 07:44:16 AM 42.9256 -72.3069 302° West 313 360 24,900 1,041 Climbing Boston Center
Tue 07:45:16 AM 42.9631 -72.4258 293° West 329 379 25,900 1,008 Climbing Boston Center
Tue 07:46:15 AM 43.0069 -72.5422 297° West 340 391 26,900 1,008 Climbing Boston Center
Tue 07:47:15 AM 43.0442 -72.6617 293° West 340 391 27,900 1,000 Climbing Boston Center
Tue 07:48:15 AM 43.0875 -72.7842 296° West 345 397 28,900 992 Climbing Boston Center
Tue 07:49:16 AM 43.1308 -72.9067 296° West 350 403 29,900 934 Climbing Boston Center
Tue 07:50:17 AM 43.1742 -73.0236 297° West 363 418 30,800 942 Climbing Boston Center
Tue 07:51:17 AM 43.2194 -73.1494 296° West 368 423 31,800 1,000 Climbing Boston Center
Tue 07:52:17 AM 43.2769 -73.2642 305° West 362 417 32,800 1,017 Climbing Boston Center
Tue 07:53:15 AM 43.3450 -73.3508 317° Northwest 362 417 33,800 610 Climbing Boston Center
Tue 07:54:15 AM 43.4294 -73.4664 315° West 357 411 34,000 298 Climbing Boston Center
Tue 07:55:16 AM 43.4908 -73.5878 305° West 371 427 34,400 1,082 Climbing Boston Center
Tue 07:56:17 AM 43.5439 -73.7061 302° West 379 436 36,200 1,311 Climbing Boston Center
Tue 07:57:15 AM 43.5903 -73.8275 298° West 363 418 37,000 555 Climbing Boston Center
Tue 07:58:16 AM 43.6367 -73.9461 298° West 356 410 37,300 246 Climbing Boston Center
Tue 07:59:17 AM 43.6833 -74.0536 301° West 356 410 37,500 347 Climbing Boston Center
Tue 08:00:17 AM 43.7272 -74.1811 296° West 362 417 38,000 254 Climbing Boston Center
Tue 08:01:15 AM 43.7750 -74.3147 296° West 372 428 38,000  Level Boston Center
Tue 08:02:16 AM 43.8250 -74.4431 298° West 378 435 38,000  Level Boston Center
Tue 08:03:16 AM 43.8811 -74.5686 302° West 383 441 38,000  Level Boston Center
Tue 08:04:18 AM 43.9392 -74.6892 304° West 383 441 38,000  Level Boston Center
Tue 08:05:15 AM 43.9908 -74.8150 300° West 377 434 38,000  Level Boston Center
Tue 08:06:16 AM 44.0381 -74.9469 297° West 377 434 38,000  Level Boston Center
Tue 08:07:15 AM 44.0833 -75.0675 298° West 388 447 38,000  Level Boston Center
Tue 08:08:15 AM 44.1336 -75.2344 293° West 388 447 38,000  Level Boston Center
Tue 08:09:16 AM 44.1758 -75.3756 293° West 393 452 38,000  Level Boston Center
Tue 08:10:16 AM 44.2181 -75.5167 293° West 398 458 38,000  Level Boston Center
Tue 08:11:16 AM 44.2619 -75.6667 292° West 398 458 38,000  Level Boston Center
Tue 08:12:17 AM 44.3078 -75.8114 294° West 398 458 38,000  Level Boston Center
Tue 08:13:16 AM 44.3514 -75.9561 293° West 398 458 38,000  Level Boston Center
Tue 08:14:40 AM 44.4000 -76.1500 289° West 410 472 38,000  Level Montreal Center
Tue 08:15:40 AM 44.4500 -76.3000 295° West 420 483 38,000  Level Montreal Center
Tue 08:16:40 AM 44.5000 -76.4667 293° West 420 483 38,000  Level Montreal Center
Tue 08:17:40 AM 44.5667 -76.6000 305° West 430 495 38,000  Level Montreal Center
Tue 08:18:40 AM 44.6167 -76.7500 295° West 430 495 38,000  Level Montreal Center
Tue 08:19:40 AM 44.6833 -76.8833 305° West 430 495 38,000  Level Montreal Center
Tue 08:20:40 AM 44.7333 -77.0500 293° West 420 483 38,000  Level Montreal Center
Tue 08:21:40 AM 44.7833 -77.2000 295° West 420 483 38,000  Level Montreal Center
Tue 08:22:40 AM 44.8500 -77.3167 309° West 410 472 38,000  Level Montreal Center
Tue 08:23:11 AM 44.8833 -77.3667 313° West 410 472 38,000  Level Toronto Center
Tue 08:24:11 AM 44.9333 -77.5167 295° West 410 472 38,000  Level Toronto Center
Tue 08:25:11 AM 44.9833 -77.6500 298° West 410 472 38,000 150 Level Toronto Center
Tue 08:26:11 AM 45.0333 -77.8000 295° West 410 472 38,300 550 Climbing Toronto Center
Tue 08:27:11 AM 45.0833 -77.9333 298° West 400 460 39,100 750 Climbing Toronto Center
Tue 08:28:11 AM 45.1333 -78.0667 298° West 400 460 39,800 450 Climbing Toronto Center
Tue 08:29:11 AM 45.1833 -78.2167 295° West 400 460 40,000 100 Climbing Toronto Center
Tue 08:30:11 AM 45.2333 -78.3500 298° West 400 460 40,000  Level Toronto Center
Tue 08:31:11 AM 45.3000 -78.5000 302° West 410 472 40,000  Level Toronto Center
Tue 08:32:11 AM 45.3500 -78.6333 298° West 410 472 40,000  Level Toronto Center
Tue 08:33:11 AM 45.4000 -78.7833 295° West 410 472 40,000  Level Toronto Center
Tue 08:34:11 AM 45.4500 -78.9500 293° West 410 472 40,000  Level Toronto Center
Tue 08:35:11 AM 45.5000 -79.0833 298° West 410 472 40,000  Level Toronto Center
Tue 08:36:11 AM 45.5500 -79.2333 295° West 420 483 40,000  Level Toronto Center
Tue 08:37:11 AM 45.6000 -79.3667 298° West 410 472 40,000  Level Toronto Center
Tue 08:38:11 AM 45.6500 -79.5333 293° West 410 472 40,000  Level Toronto Center
Tue 08:39:11 AM 45.7000 -79.6833 296° West 410 472 40,000  Level Toronto Center
Tue 08:40:11 AM 45.7500 -79.8167 298° West 410 472 40,000  Level Toronto Center
Tue 08:41:11 AM 45.8000 -79.9667 296° West 410 472 40,000  Level Toronto Center
Tue 08:42:11 AM 45.8500 -80.1167 296° West 410 472 40,000  Level Toronto Center
Tue 08:43:11 AM 45.9167 -80.2500 306° West 410 472 40,000  Level Toronto Center
Tue 08:44:11 AM 45.9667 -80.4000 296° West 410 472 40,000  Level Toronto Center
Tue 08:45:11 AM 46.0000 -80.5500 288° West 410 472 40,000  Level Toronto Center
Tue 08:46:11 AM 46.0667 -80.7167 300° West 410 472 40,000  Level Toronto Center
Tue 08:47:11 AM 46.1000 -80.8500 290° West 410 472 40,000  Level Toronto Center
Tue 08:48:11 AM 46.1500 -81.0000 296° West 410 472 40,000  Level Toronto Center
Tue 08:49:11 AM 46.2000 -81.1500 296° West 410 472 40,000  Level Toronto Center
Tue 08:50:11 AM 46.2500 -81.3000 296° West 410 472 40,000  Level Toronto Center
Tue 08:51:11 AM 46.3000 -81.4500 296° West 400 460 40,000  Level Toronto Center
Tue 08:52:11 AM 46.3500 -81.5833 299° West 400 460 40,000  Level Toronto Center
Tue 08:53:11 AM 46.4000 -81.7333 296° West 400 460 40,000  Level Toronto Center
Tue 08:54:11 AM 46.4500 -81.8833 296° West 400 460 40,000  Level Toronto Center
Tue 08:55:11 AM 46.4833 -82.0333 288° West 400 460 40,000  Level Toronto Center
Tue 08:56:11 AM 46.5333 -82.1833 296° West 400 460 40,000  Level Toronto Center
Tue 08:57:11 AM 46.5667 -82.3167 290° West 400 460 40,000  Level Toronto Center
Tue 08:58:11 AM 46.6333 -82.4667 303° West 400 460 40,000  Level Toronto Center
Tue 08:59:11 AM 46.6833 -82.6167 296° West 410 472 40,000  Level Toronto Center
Tue 09:00:11 AM 46.7167 -82.7667 288° West 410 472 40,000  Level Toronto Center
Tue 09:01:11 AM 46.7667 -82.9167 296° West 400 460 40,000  Level Toronto Center
Tue 09:02:11 AM 46.8167 -83.0667 296° West 400 460 40,000  Level Toronto Center
Tue 09:03:11 AM 46.8667 -83.2167 296° West 400 460 40,000  Level Toronto Center
Tue 09:04:11 AM 46.9000 -83.3667 288° West 400 460 40,000  Level Toronto Center
Tue 09:05:11 AM 46.9333 -83.5167 288° West 400 460 40,000  Level Toronto Center
Tue 09:06:11 AM 46.9833 -83.6667 296° West 400 460 40,000  Level Toronto Center
Tue 09:07:11 AM 47.0167 -83.8167 288° West 400 460 40,000  Level Toronto Center
Tue 09:08:11 AM 47.0667 -83.9667 296° West 400 460 40,000  Level Toronto Center
Tue 09:09:11 AM 47.1167 -84.1167 296° West 400 460 40,000  Level Toronto Center
Tue 09:10:11 AM 47.1500 -84.2667 288° West 400 460 40,000  Level Toronto Center
Tue 09:11:11 AM 47.2000 -84.4167 296° West 400 460 40,000  Level Toronto Center
Tue 09:12:11 AM 47.2500 -84.5667 296° West 400 460 40,000  Level Toronto Center
Tue 09:13:11 AM 47.2833 -84.7167 288° West 400 460 40,000  Level Toronto Center
Tue 09:14:11 AM 47.3333 -84.8667 296° West 400 460 40,000  Level Toronto Center
Tue 09:15:11 AM 47.3833 -85.0167 296° West 400 460 40,000  Level Toronto Center
Tue 09:16:12 AM 47.4167 -85.1833 287° West 400 460 40,000  Level Toronto Center
Tue 09:17:11 AM 47.4667 -85.3333 296° West 390 449 40,000  Level Toronto Center
Tue 09:18:11 AM 47.5000 -85.4500 293° West 390 449 40,000  Level Toronto Center
Tue 09:19:11 AM 47.5500 -85.6167 294° West 390 449 40,000  Level Toronto Center
Tue 09:20:01 AM 47.5667 -85.7000 287° West 390 449 40,000  Level Winnipeg Center
Tue 09:21:01 AM 47.6167 -85.8333 299° West 390 449 40,000  Level Winnipeg Center
Tue 09:22:01 AM 47.6333 -85.9833 279° West 390 449 40,000  Level Winnipeg Center
Tue 09:23:01 AM 47.6833 -86.1167 299° West 390 449 40,000  Level Winnipeg Center
Tue 09:24:01 AM 47.7167 -86.2833 287° West 390 449 40,000  Level Winnipeg Center
Tue 09:25:01 AM 47.7667 -86.4333 296° West 390 449 40,000  Level Winnipeg Center
Tue 09:26:02 AM 47.8000 -86.5667 290° West 380 437 40,000  Level Winnipeg Center
Tue 09:27:01 AM 47.8500 -86.7167 296° West 380 437 40,000  Level Winnipeg Center
Tue 09:28:02 AM 47.8833 -86.8833 287° West 390 449 40,000  Level Winnipeg Center
Tue 09:29:02 AM 47.9167 -87.0333 288° West 390 449 40,000  Level Winnipeg Center
Tue 09:30:01 AM 47.9500 -87.1667 291° West 390 449 40,000  Level Winnipeg Center
Tue 09:31:01 AM 48.0000 -87.3333 294° West 390 449 40,000  Level Winnipeg Center
Tue 09:32:01 AM 48.0333 -87.4833 288° West 390 449 40,000  Level Winnipeg Center
Tue 09:33:01 AM 48.0833 -87.6167 299° West 390 449 40,000  Level Winnipeg Center
Tue 09:34:01 AM 48.1000 -87.7667 280° West 390 449 40,000  Level Winnipeg Center
Tue 09:35:01 AM 48.1500 -87.9333 294° West 390 449 40,000  Level Winnipeg Center
Tue 09:36:01 AM 48.1833 -88.0833 288° West 390 449 40,000  Level Winnipeg Center
Tue 09:37:01 AM 48.2167 -88.2333 288° West 390 449 40,000  Level Winnipeg Center
Tue 09:38:02 AM 48.2667 -88.4000 294° West 380 437 40,000  Level Winnipeg Center
Tue 09:39:01 AM 48.2833 -88.5333 281° West 380 437 40,000  Level Winnipeg Center
Tue 09:40:01 AM 48.3333 -88.6833 297° West 380 437 40,000  Level Winnipeg Center
Tue 09:41:01 AM 48.3667 -88.8333 289° West 380 437 40,000  Level Winnipeg Center
Tue 09:42:01 AM 48.4000 -88.9833 289° West 380 437 40,000  Level Winnipeg Center
Tue 09:43:01 AM 48.4333 -89.1167 291° West 380 437 40,000  Level Winnipeg Center
Tue 09:44:01 AM 48.4833 -89.3000 292° West 380 437 40,000  Level Winnipeg Center
Tue 09:45:01 AM 48.5000 -89.4333 281° West 380 437 40,000  Level Winnipeg Center
Tue 09:46:02 AM 48.5500 -89.5833 297° West 400 460 40,000  Level Winnipeg Center
Tue 09:47:02 AM 48.5667 -89.7333 280° West 380 437 40,000  Level Winnipeg Center
Tue 09:48:02 AM 48.6167 -89.8833 297° West 380 437 40,000  Level Winnipeg Center
Tue 09:49:01 AM 48.6500 -90.0333 289° West 380 437 40,000  Level Winnipeg Center
Tue 09:50:01 AM 48.6833 -90.1667 291° West 380 437 40,000  Level Winnipeg Center
Tue 09:51:01 AM 48.7167 -90.3500 285° West 370 426 40,000  Level Winnipeg Center
Tue 09:52:01 AM 48.7333 -90.4667 282° West 370 426 40,000  Level Winnipeg Center
Tue 09:53:01 AM 48.7833 -90.6500 293° West 370 426 40,000  Level Winnipeg Center
Tue 09:54:01 AM 48.8000 -90.7667 282° West 370 426 40,000  Level Winnipeg Center
Tue 09:55:01 AM 48.8500 -90.9167 297° West 370 426 40,000 300 Level Winnipeg Center
Tue 09:56:01 AM 48.8667 -91.0667 280° West 370 426 40,600 550 Climbing Winnipeg Center
Tue 09:57:01 AM 48.9167 -91.2167 297° West 360 414 41,100 500 Climbing Winnipeg Center
Tue 09:58:01 AM 48.9333 -91.3667 280° West 350 403 41,600 500 Climbing Winnipeg Center
Tue 09:59:01 AM 48.9500 -91.4833 282° West 350 403 42,100 280 Climbing Winnipeg Center
Tue 10:01:00 AM 49.0257 -91.7934 288° West  Level FlightAware Approximate
Tue 10:03:01 AM 49.0667 -92.0667 287° West 350 403 43,000  Level Winnipeg Center
Tue 10:04:01 AM 49.1000 -92.1833 294° West 350 403 43,000  Level Winnipeg Center
Tue 10:05:01 AM 49.1333 -92.3333 289° West 360 414 43,000  Level Winnipeg Center
Tue 10:06:02 AM 49.1667 -92.4833 289° West 360 414 43,000  Level Winnipeg Center
Tue 10:07:01 AM 49.2000 -92.6333 289° West 370 426 43,000  Level Winnipeg Center
Tue 10:08:00 AM 49.2531 -92.9155 287° West  Level FlightAware Approximate
Tue 10:08:01 AM 49.2167 -92.7833 280° West 370 426 43,000  Level Winnipeg Center
Tue 10:09:01 AM 49.2500 -92.9500 287° West 380 437 43,000  Level Winnipeg Center
Tue 10:10:01 AM 49.2833 -93.1000 289° West 380 437 43,000  Level Winnipeg Center
Tue 10:11:01 AM 49.3167 -93.2500 289° West 380 437 43,000  Level Winnipeg Center
Tue 10:12:01 AM 49.3333 -93.4167 279° West 380 437 43,000  Level Winnipeg Center
Tue 10:13:01 AM 49.3833 -93.5667 297° West 380 437 43,000  Level Winnipeg Center
Tue 10:14:01 AM 49.4000 -93.7333 279° West 380 437 43,000  Level Winnipeg Center
Tue 10:15:01 AM 49.4333 -93.8833 289° West 380 437 43,000  Level Winnipeg Center
Tue 10:16:01 AM 49.4500 -94.0500 279° West 380 437 43,000  Level Winnipeg Center
Tue 10:17:01 AM 49.4833 -94.2167 287° West 380 437 43,000  Level Winnipeg Center
Tue 10:18:01 AM 49.5000 -94.3667 280° West 380 437 43,000  Level Winnipeg Center
Tue 10:19:01 AM 49.5000 -94.5167 270° West 380 437 43,000  Level Winnipeg Center
Tue 10:20:01 AM 49.5167 -94.7000 278° West 380 437 43,000  Level Winnipeg Center
Tue 10:21:01 AM 49.5333 -94.8500 280° West 380 437 43,000  Level Winnipeg Center
Tue 10:22:01 AM 49.5667 -95.0000 289° West 380 437 43,000  Level Winnipeg Center
Tue 10:23:01 AM 49.5667 -95.1833 270° West 380 437 43,000  Level Winnipeg Center
Tue 10:24:01 AM 49.5833 -95.3333 280° West 380 437 43,000  Level Winnipeg Center
Tue 10:25:01 AM 49.6000 -95.5000 279° West 380 437 43,000  Level Winnipeg Center
Tue 10:26:01 AM 49.6000 -95.6833 270° West 370 426 43,000  Level Winnipeg Center
Tue 10:27:01 AM 49.6167 -95.8333 280° West 380 437 43,000  Level Winnipeg Center
Tue 10:28:01 AM 49.6333 -95.9833 280° West 380 437 43,000  Level Winnipeg Center
Tue 10:29:01 AM 49.6667 -96.1667 286° West 390 449 43,000  Level Winnipeg Center
Tue 10:30:01 AM 49.6667 -96.3167 270° West 390 449 43,000  Level Winnipeg Center
Tue 10:31:01 AM 49.6833 -96.4667 280° West 390 449 43,000  Level Winnipeg Center
Tue 10:32:01 AM 49.7000 -96.6500 278° West 390 449 43,000  Level Winnipeg Center
Tue 10:33:01 AM 49.7000 -96.8167 270° West 390 449 43,000  Level Winnipeg Center
Tue 10:34:01 AM 49.7167 -97.0000 278° West 390 449 43,000  Level Winnipeg Center
Tue 10:35:01 AM 49.7333 -97.1500 280° West 390 449 43,000  Level Winnipeg Center
Tue 10:36:01 AM 49.7333 -97.3333 270° West 390 449 43,000  Level Winnipeg Center
Tue 10:37:01 AM 49.7500 -97.4833 280° West 390 449 43,000  Level Winnipeg Center
Tue 10:38:01 AM 49.7667 -97.6667 278° West 390 449 43,000  Level Winnipeg Center
Tue 10:40:01 AM 49.7833 -98.0000 275° West 390 449 43,000  Level Winnipeg Center
Tue 10:41:01 AM 49.7833 -98.1500 270° West 390 449 43,000  Level Winnipeg Center
Tue 10:42:01 AM 49.8000 -98.3167 279° West 390 449 43,000  Level Winnipeg Center
Tue 10:43:01 AM 49.8167 -98.5000 278° West 390 449 43,000  Level Winnipeg Center
Tue 10:44:01 AM 49.8333 -98.6500 280° West 390 449 43,000  Level Winnipeg Center
Tue 10:45:01 AM 49.8500 -98.8333 278° West 390 449 43,000  Level Winnipeg Center
Tue 10:46:01 AM 49.8667 -98.9833 280° West 390 449 43,000  Level Winnipeg Center
Tue 10:47:01 AM 49.8833 -99.1500 279° West 390 449 43,000  Level Winnipeg Center
Tue 10:48:01 AM 49.8833 -99.3333 270° West 390 449 43,000  Level Winnipeg Center
Tue 10:49:01 AM 49.9000 -99.4833 280° West 390 449 43,000  Level Winnipeg Center
Tue 10:50:01 AM 49.9167 -99.6667 278° West 390 449 43,000  Level Winnipeg Center
Tue 10:51:01 AM 49.9333 -99.8167 280° West 390 449 43,000  Level Winnipeg Center
Tue 10:52:01 AM 49.9333 -99.9833 270° West 390 449 43,000  Level Winnipeg Center
Tue 10:53:01 AM 49.9500 -100.1667 278° West 390 449 43,000  Level Winnipeg Center
Tue 10:54:01 AM 49.9667 -100.3167 280° West 390 449 43,000  Level Winnipeg Center
Tue 10:55:01 AM 49.9833 -100.5000 278° West 390 449 43,000  Level Winnipeg Center
Tue 10:56:02 AM 49.9833 -100.6667 270° West 390 449 43,000  Level Winnipeg Center
Tue 10:57:01 AM 50.0000 -100.8500 278° West 390 449 43,000  Level Winnipeg Center
Tue 10:58:01 AM 50.0167 -101.0000 280° West 390 449 43,000  Level Winnipeg Center
Tue 10:59:01 AM 50.0000 -101.1833 262° West 400 460 43,000  Level Winnipeg Center
Tue 11:00:01 AM 50.0167 -101.3333 280° West 400 460 43,000  Level Winnipeg Center
Tue 11:01:02 AM 50.0167 -101.5167 270° West 390 449 43,000  Level Winnipeg Center
Tue 11:02:01 AM 50.0333 -101.6833 279° West 400 460 43,000  Level Winnipeg Center
Tue 11:03:01 AM 50.0500 -101.8667 278° West 400 460 43,000  Level Winnipeg Center
Tue 11:04:01 AM 50.0333 -102.0500 262° West 400 460 43,000  Level Winnipeg Center
Tue 11:05:01 AM 50.0500 -102.2333 278° West 400 460 43,000  Level Winnipeg Center
Tue 11:06:01 AM 50.0500 -102.3833 270° West 400 460 43,000  Level Winnipeg Center
Tue 11:07:01 AM 50.0667 -102.5500 279° West 400 460 43,000  Level Winnipeg Center
Tue 11:08:01 AM 50.0500 -102.7333 262° West 400 460 43,000  Level Winnipeg Center
Tue 11:09:01 AM 50.0667 -102.9167 278° West 400 460 43,000  Level Winnipeg Center
Tue 11:10:01 AM 50.0667 -103.1000 270° West 400 460 43,000  Level Winnipeg Center
Tue 11:11:01 AM 50.0667 -103.2500 270° West 400 460 43,000  Level Winnipeg Center
Tue 11:12:01 AM 50.0667 -103.4333 270° West 400 460 43,000  Level Winnipeg Center
Tue 11:13:01 AM 50.0667 -103.6000 270° West 400 460 43,000  Level Winnipeg Center
Tue 11:14:01 AM 50.0833 -103.7833 278° West 400 460 43,000  Level Winnipeg Center
Tue 11:15:01 AM 50.0667 -103.9500 261° West 400 460 43,000  Level Winnipeg Center
Tue 11:16:01 AM 50.0667 -104.1167 270° West 400 460 43,000  Level Winnipeg Center
Tue 11:17:01 AM 50.0833 -104.3000 278° West 400 460 43,000  Level Winnipeg Center
Tue 11:18:01 AM 50.0833 -104.4833 270° West 400 460 43,000  Level Winnipeg Center
Tue 11:19:01 AM 50.0667 -104.6333 260° West 400 460 43,000  Level Winnipeg Center
Tue 11:20:01 AM 50.0833 -104.8167 278° West 410 472 43,000  Level Winnipeg Center
Tue 11:21:01 AM 50.0833 -105.0000 270° West 400 460 43,000  Level Winnipeg Center
Tue 11:22:01 AM 50.0833 -105.1833 270° West 400 460 43,000  Level Winnipeg Center
Tue 11:23:01 AM 50.0667 -105.3500 261° West 400 460 43,000  Level Winnipeg Center
Tue 11:24:01 AM 50.0833 -105.5333 278° West 400 460 43,000  Level Winnipeg Center
Tue 11:25:01 AM 50.0833 -105.7167 270° West 400 460 43,000  Level Winnipeg Center
Tue 11:26:02 AM 50.0833 -105.8667 270° West 400 460 43,000  Level Winnipeg Center
Tue 11:27:01 AM 50.0667 -106.0500 262° West 400 460 43,000  Level Winnipeg Center
Tue 11:28:01 AM 50.0667 -106.2333 270° West 410 472 43,000  Level Winnipeg Center
Tue 11:29:10 AM 50.0667 -106.4167 270° West 410 472 43,000  Level Edmonton Center
Tue 11:30:10 AM 50.0667 -106.5667 270° West 400 460 43,000  Level Edmonton Center
Tue 11:31:02 AM 50.0667 -106.7667 270° West 410 472 43,000  Level Winnipeg Center
Tue 11:32:01 AM 50.0667 -106.9500 270° West 410 472 43,000 -403 Level Winnipeg Center
Tue 11:33:01 AM 50.0667 -107.1333 270° West 420 483 42,200 -900 Descending Winnipeg Center
Tue 11:34:01 AM 50.0667 -107.3333 270° West 440 506 41,200 -1,000 Descending Winnipeg Center
Tue 11:35:01 AM 50.0667 -107.5167 270° West 450 518 40,200 -600 Descending Winnipeg Center
Tue 11:36:01 AM 50.0500 -107.7000 262° West 450 518 40,000 -93 Descending Winnipeg Center
Tue 11:37:10 AM 50.0333 -107.9000 263° West 440 506 40,000  Level Edmonton Center
Tue 11:38:10 AM 50.0333 -108.0833 270° West 430 495 40,000  Level Edmonton Center
Tue 11:39:10 AM 50.0167 -108.2667 262° West 430 495 40,000  Level Edmonton Center
Tue 11:40:01 AM 50.0333 -108.4667 277° West 440 506 40,000  Level Winnipeg Center
Tue 11:41:10 AM 50.0167 -108.6667 263° West 430 495 40,000  Level Edmonton Center
Tue 11:42:10 AM 50.0000 -108.8500 262° West 430 495 40,000  Level Edmonton Center
Tue 11:43:10 AM 50.0167 -109.0333 278° West 430 495 40,000  Level Edmonton Center
Tue 11:44:10 AM 50.0000 -109.2167 262° West 430 495 40,000  Level Edmonton Center
Tue 11:45:10 AM 50.0000 -109.4000 270° West 430 495 40,000  Level Edmonton Center
Tue 11:46:10 AM 50.0000 -109.6000 270° West 430 495 40,000  Level Edmonton Center
Tue 11:47:10 AM 49.9833 -109.7833 262° West 430 495 40,000  Level Edmonton Center
Tue 11:48:01 AM 49.9833 -109.9667 270° West 430 495 40,000  Level Winnipeg Center
Tue 11:49:10 AM 49.9667 -110.1500 262° West 420 483 40,000  Level Edmonton Center
Tue 11:50:10 AM 49.9667 -110.3333 270° West 420 483 40,000  Level Edmonton Center
Tue 11:51:10 AM 49.9500 -110.5167 262° West 420 483 40,000  Level Edmonton Center
Tue 11:52:10 AM 49.9333 -110.7000 262° West 430 495 40,000  Level Edmonton Center
Tue 11:53:10 AM 49.9333 -110.8833 270° West 430 495 40,000  Level Edmonton Center
Tue 11:54:10 AM 49.9333 -111.0667 270° West 430 495 40,000  Level Edmonton Center
Tue 11:55:10 AM 49.9500 -111.2833 277° West 430 495 40,000  Level Edmonton Center
Tue 11:56:10 AM 49.9333 -111.4667 262° West 430 495 40,000  Level Edmonton Center
Tue 11:57:10 AM 49.9333 -111.6500 270° West 440 506 40,000  Level Edmonton Center
Tue 11:58:10 AM 49.9500 -111.8333 278° West 440 506 40,000  Level Edmonton Center
Tue 11:59:10 AM 49.9333 -112.0167 262° West 440 506 40,000  Level Edmonton Center
Tue 12:00:01 PM 49.9500 -112.2167 277° West 440 506 40,000  Level Winnipeg Center
Tue 12:01:10 PM 49.9333 -112.4000 262° West 440 506 40,000  Level Edmonton Center
Tue 12:02:10 PM 49.9333 -112.6167 270° West 440 506 40,000  Level Edmonton Center
Tue 12:03:10 PM 49.9333 -112.8000 270° West 440 506 40,000  Level Edmonton Center
Tue 12:04:10 PM 49.9333 -112.9833 270° West 440 506 40,000  Level Edmonton Center
Tue 12:05:10 PM 49.9333 -113.1667 270° West 430 495 40,000  Level Edmonton Center
Tue 12:06:10 PM 49.9333 -113.3500 270° West 440 506 40,000  Level Edmonton Center
Tue 12:07:10 PM 49.9167 -113.5333 262° West 440 506 40,000  Level Edmonton Center
Tue 12:08:10 PM 49.9167 -113.7500 270° West 430 495 40,000  Level Edmonton Center
Tue 12:09:10 PM 49.9167 -113.9333 270° West 440 506 40,000  Level Edmonton Center
Tue 12:10:10 PM 49.9167 -114.1167 270° West 430 495 40,000  Level Edmonton Center
Tue 12:11:10 PM 49.9167 -114.3000 270° West 430 495 40,000  Level Edmonton Center
Tue 12:12:10 PM 49.9167 -114.4833 270° West 440 506 40,000  Level Edmonton Center
Tue 12:13:10 PM 49.9167 -114.6833 270° West 430 495 40,000  Level Edmonton Center
Tue 12:14:10 PM 49.9000 -114.8667 262° West 440 506 40,000  Level Edmonton Center
Tue 12:15:10 PM 49.9000 -115.0500 270° West 430 495 40,000  Level Edmonton Center
Tue 12:16:10 PM 49.9000 -115.2333 270° West 440 506 40,000  Level Edmonton Center
Tue 12:17:10 PM 49.8833 -115.4167 262° West 440 506 40,000  Level Edmonton Center
Tue 12:18:10 PM 49.8667 -115.6333 263° West 440 506 40,000  Level Edmonton Center
Tue 12:19:10 PM 49.8667 -115.8167 270° West 430 495 40,000  Level Edmonton Center
Tue 12:20:10 PM 49.8667 -116.0000 270° West 440 506 40,000  Level Edmonton Center
Tue 12:21:10 PM 49.8667 -116.1833 270° West 430 495 40,000  Level Edmonton Center
Tue 12:22:10 PM 49.8500 -116.3667 262° West 430 495 40,000  Level Edmonton Center
Tue 12:23:10 PM 49.8333 -116.5667 263° West 430 495 40,000  Level Edmonton Center
Tue 12:24:10 PM 49.8333 -116.7500 270° West 430 495 40,000  Level Edmonton Center
Tue 12:25:10 PM 49.8333 -116.9333 270° West 440 506 40,000  Level Edmonton Center
Tue 12:26:10 PM 49.8167 -117.1167 262° West 440 506 40,000  Level Edmonton Center
Tue 12:27:10 PM 49.8167 -117.3000 270° West 440 506 40,000  Level Edmonton Center
Tue 12:28:10 PM 49.8000 -117.5167 263° West 440 506 40,000  Level Edmonton Center
Tue 12:29:10 PM 49.8000 -117.7000 270° West 440 506 40,000  Level Edmonton Center
Tue 12:30:10 PM 49.7667 -117.9000 256° West 440 506 40,000  Level Edmonton Center
Tue 12:31:10 PM 49.7667 -118.0833 270° West 440 506 40,000  Level Edmonton Center
Tue 12:32:10 PM 49.7667 -118.2667 270° West 440 506 40,000  Level Edmonton Center
Tue 12:33:10 PM 49.7500 -118.4500 262° West 440 506 40,000  Level Edmonton Center
Tue 12:34:10 PM 49.7333 -118.6500 263° West 440 506 40,000  Level Edmonton Center
Tue 12:35:10 PM 49.7333 -118.8333 270° West 440 506 40,000  Level Edmonton Center
Tue 12:36:10 PM 49.7167 -119.0000 261° West 440 506 40,000  Level Edmonton Center
Tue 12:37:31 PM 49.7167 -119.2333 270° West 440 506 40,000  Level Vancouver Center
Tue 12:38:31 PM 49.7000 -119.4167 262° West 450 518 40,000  Level Vancouver Center
Tue 12:39:31 PM 49.7000 -119.5833 270° West 440 506 40,000  Level Vancouver Center
Tue 12:40:31 PM 49.6833 -119.7667 262° West 450 518 40,000  Level Vancouver Center
Tue 12:41:31 PM 49.6833 -119.9833 270° West 440 506 40,000 -450 Level Vancouver Center
Tue 12:42:31 PM 49.6500 -120.1667 254° West 450 518 39,100 -1,550 Descending Vancouver Center
Tue 12:43:31 PM 49.6167 -120.3667 256° West 440 506 36,900 -2,050 Descending Vancouver Center
Tue 12:44:31 PM 49.6167 -120.5500 270° West 450 518 35,000 -2,000 Descending Vancouver Center
Tue 12:45:31 PM 49.5833 -120.7667 257° West 460 529 32,900 -2,050 Descending Vancouver Center
Tue 12:46:31 PM 49.5500 -120.9500 254° West 470 541 30,900 -1,950 Descending Vancouver Center
Tue 12:47:31 PM 49.5333 -121.1167 261° West 470 541 29,000 -2,000 Descending Vancouver Center
Tue 12:48:31 PM 49.5167 -121.3333 263° West 480 552 26,900 -2,150 Descending Vancouver Center
Tue 12:49:31 PM 49.4833 -121.5333 256° West 470 541 24,700 -3,000 Descending Vancouver Center
Tue 12:50:31 PM 49.4667 -121.7167 262° West 450 518 20,900 -3,000 Descending Vancouver Center
Tue 12:51:31 PM 49.4333 -121.8667 251° West 400 460 18,700 -2,100 Descending Vancouver Center
Tue 12:52:31 PM 49.4167 -122.0000 259° West 330 380 16,700 -1,850 Descending Vancouver Center
Tue 12:53:31 PM 49.4167 -122.1500 270° West 300 345 15,000 -1,600 Descending Vancouver Center
Tue 12:54:31 PM 49.4000 -122.2667 258° West 280 322 13,500 -1,550 Descending Vancouver Center
Tue 12:55:31 PM 49.3833 -122.3833 258° West 280 322 11,900 -1,500 Descending Vancouver Center
Tue 12:56:31 PM 49.3667 -122.5000 258° West 280 322 10,500 -950 Descending Vancouver Center
Tue 12:57:31 PM 49.3667 -122.6167 270° West 290 334 10,000 -650 Descending Vancouver Center
Tue 12:58:31 PM 49.3500 -122.7500 259° West 280 322 9,200 -1,200 Descending Vancouver Center
Tue 12:59:31 PM 49.3333 -122.8500 256° West 280 322 7,600 -1,200 Descending Vancouver Center
Tue 01:00:31 PM 49.2500 -122.8333 173° South 260 299 6,800 -1,200 Descending Vancouver Center
Tue 01:01:31 PM 49.2000 -122.8000 156° South 260 299 5,200 -1,450 Descending Vancouver Center
Tue 01:02:31 PM 49.1167 -122.8333 195° South 260 299 3,900 -850 Descending Vancouver Center
Tue 01:03:31 PM 49.1333 -122.9000 291° West 220 253 3,500 -750 Descending Vancouver Center
Tue 01:04:31 PM 49.1500 -122.9833 287° West 190 219 2,400 -1,100 Descending Vancouver Center
Tue 01:05:31 PM 49.1500 -123.0667 270° West 170 196 1,300 -900 Descending Vancouver Center
Tue 01:06:31 PM 49.1667 -123.1167 297° West 140 161 600 -700 Descending Vancouver Center

Login

Don't have an account? Register now (free) for customized features, flight alerts, and more!